sensor_id;sensor_type;location;lat;lon;timestamp;pressure;altitude;pressure_sealevel;temperature;humidity
3960;BME280;1994;48.640;8.894;2023-03-14T00:02:08;94597.69;;;9.91;100.00
3960;BME280;1994;48.640;8.894;2023-03-14T00:04:34;94603.13;;;9.99;100.00
3960;BME280;1994;48.640;8.894;2023-03-14T00:07:00;94590.94;;;10.00;100.00
3960;BME280;1994;48.640;8.894;2023-03-14T00:09:26;94580.63;;;9.95;100.00
3960;BME280;1994;48.640;8.894;2023-03-14T00:11:53;94578.00;;;10.00;100.00
3960;BME280;1994;48.640;8.894;2023-03-14T00:14:19;94578.56;;;9.97;100.00
3960;BME280;1994;48.640;8.894;2023-03-14T00:16:47;94573.38;;;9.97;100.00
3960;BME280;1994;48.640;8.894;2023-03-14T00:19:13;94573.38;;;9.97;100.00
3960;BME280;1994;48.640;8.894;2023-03-14T00:21:39;94569.47;;;10.04;100.00
3960;BME280;1994;48.640;8.894;2023-03-14T00:24:06;94564.28;;;10.04;100.00
3960;BME280;1994;48.640;8.894;2023-03-14T00:26:32;94569.25;;;9.91;100.00
3960;BME280;1994;48.640;8.894;2023-03-14T00:28:58;94568.22;;;9.97;100.00
3960;BME280;1994;48.640;8.894;2023-03-14T00:31:24;94570.28;;;9.95;100.00
3960;BME280;1994;48.640;8.894;2023-03-14T00:33:52;94572.84;;;10.00;100.00
3960;BME280;1994;48.640;8.894;2023-03-14T00:36:18;94571.34;;;9.89;100.00
3960;BME280;1994;48.640;8.894;2023-03-14T00:38:48;94570.25;;;10.00;100.00
3960;BME280;1994;48.640;8.894;2023-03-14T00:41:18;94566.13;;;9.99;100.00
3960;BME280;1994;48.640;8.894;2023-03-14T00:43:45;94570.75;;;10.02;100.00
3960;BME280;1994;48.640;8.894;2023-03-14T00:46:11;94581.09;;;10.02;100.00
3960;BME280;1994;48.640;8.894;2023-03-14T00:48:38;94578.56;;;9.97;100.00
3960;BME280;1994;48.640;8.894;2023-03-14T00:51:06;94581.88;;;10.07;100.00
3960;BME280;1994;48.640;8.894;2023-03-14T00:53:36;94589.41;;;10.04;100.00
3960;BME280;1994;48.640;8.894;2023-03-14T00:56:05;94592.50;;;10.06;100.00
3960;BME280;1994;48.640;8.894;2023-03-14T00:58:32;94600.28;;;9.91;100.00
3960;BME280;1994;48.640;8.894;2023-03-14T01:00:58;94591.97;;;9.99;100.00
3960;BME280;1994;48.640;8.894;2023-03-14T01:03:24;94596.16;;;9.90;100.00
3960;BME280;1994;48.640;8.894;2023-03-14T01:05:50;94597.66;;;9.96;100.00
3960;BME280;1994;48.640;8.894;2023-03-14T01:08:16;94581.69;;;9.89;100.00
3960;BME280;1994;48.640;8.894;2023-03-14T01:10:42;94593.50;;;10.10;100.00
3960;BME280;1994;48.640;8.894;2023-03-14T01:13:08;94582.09;;;10.16;100.00
3960;BME280;1994;48.640;8.894;2023-03-14T01:15:36;94563.78;;;10.07;100.00
3960;BME280;1994;48.640;8.894;2023-03-14T01:18:03;94555.69;;;10.19;100.00
3960;BME280;1994;48.640;8.894;2023-03-14T01:20:29;94547.19;;;10.13;100.00
3960;BME280;1994;48.640;8.894;2023-03-14T01:22:55;94551.50;;;10.23;100.00
3960;BME280;1994;48.640;8.894;2023-03-14T01:25:21;94548.44;;;10.21;100.00
3960;BME280;1994;48.640;8.894;2023-03-14T01:27:47;94542.75;;;10.19;100.00
3960;BME280;1994;48.640;8.894;2023-03-14T01:30:13;94539.22;;;10.05;100.00
3960;BME280;1994;48.640;8.894;2023-03-14T01:32:40;94530.94;;;10.08;100.00
3960;BME280;1994;48.640;8.894;2023-03-14T01:35:06;94506.94;;;9.87;100.00
3960;BME280;1994;48.640;8.894;2023-03-14T01:37:32;94505.19;;;9.78;100.00
3960;BME280;1994;48.640;8.894;2023-03-14T01:39:57;94504.16;;;9.79;100.00
3960;BME280;1994;48.640;8.894;2023-03-14T01:42:23;94486.56;;;9.81;100.00
3960;BME280;1994;48.640;8.894;2023-03-14T01:44:56;94482.09;;;9.91;100.00
3960;BME280;1994;48.640;8.894;2023-03-14T01:47:23;94488.59;;;9.89;100.00
3960;BME280;1994;48.640;8.894;2023-03-14T01:50:01;94484.47;;;9.83;100.00
3960;BME280;1994;48.640;8.894;2023-03-14T01:52:40;94489.16;;;9.81;100.00
3960;BME280;1994;48.640;8.894;2023-03-14T01:55:17;94495.91;;;9.77;100.00
3960;BME280;1994;48.640;8.894;2023-03-14T01:57:53;94495.34;;;9.80;100.00
3960;BME280;1994;48.640;8.894;2023-03-14T02:00:23;94494.03;;;9.82;100.00
3960;BME280;1994;48.640;8.894;2023-03-14T02:02:55;94504.47;;;9.72;100.00
3960;BME280;1994;48.640;8.894;2023-03-14T02:05:26;94499.53;;;9.76;100.00
3960;BME280;1994;48.640;8.894;2023-03-14T02:07:56;94501.09;;;9.72;100.00
3960;BME280;1994;48.640;8.894;2023-03-14T02:10:38;94487.66;;;9.75;100.00
3960;BME280;1994;48.640;8.894;2023-03-14T02:13:05;94497.44;;;9.78;100.00
3960;BME280;1994;48.640;8.894;2023-03-14T02:15:32;94487.09;;;9.78;100.00
3960;BME280;1994;48.640;8.894;2023-03-14T02:17:59;94481.69;;;9.74;100.00
3960;BME280;1994;48.640;8.894;2023-03-14T02:20:35;94482.38;;;9.85;100.00
3960;BME280;1994;48.640;8.894;2023-03-14T02:23:04;94472.59;;;9.82;100.00
3960;BME280;1994;48.640;8.894;2023-03-14T02:26:06;94478.31;;;9.74;100.00
3960;BME280;1994;48.640;8.894;2023-03-14T02:28:34;94461.78;;;9.75;100.00
3960;BME280;1994;48.640;8.894;2023-03-14T02:31:00;94466.41;;;9.78;100.00
3960;BME280;1994;48.640;8.894;2023-03-14T02:33:26;94474.19;;;9.73;100.00
3960;BME280;1994;48.640;8.894;2023-03-14T02:36:01;94471.63;;;9.68;100.00
3960;BME280;1994;48.640;8.894;2023-03-14T02:41:12;94444.25;;;9.67;100.00
3960;BME280;1994;48.640;8.894;2023-03-14T02:43:38;94454.34;;;9.63;100.00
3960;BME280;1994;48.640;8.894;2023-03-14T02:46:05;94431.75;;;9.79;100.00
3960;BME280;1994;48.640;8.894;2023-03-14T02:48:43;94439.00;;;9.77;100.00
3960;BME280;1994;48.640;8.894;2023-03-14T02:51:13;94440.56;;;9.78;100.00
3960;BME280;1994;48.640;8.894;2023-03-14T02:53:40;94418.38;;;9.67;99.58
3960;BME280;1994;48.640;8.894;2023-03-14T02:56:09;94424.56;;;9.71;99.27
3960;BME280;1994;48.640;8.894;2023-03-14T02:58:35;94425.09;;;9.68;99.15
3960;BME280;1994;48.640;8.894;2023-03-14T03:01:01;94430.06;;;9.59;98.80
3960;BME280;1994;48.640;8.894;2023-03-14T03:03:27;94420.47;;;9.65;97.21
3960;BME280;1994;48.640;8.894;2023-03-14T03:05:55;94414.81;;;9.58;98.05
3960;BME280;1994;48.640;8.894;2023-03-14T03:08:23;94401.91;;;9.58;97.15
3960;BME280;1994;48.640;8.894;2023-03-14T03:10:50;94391.53;;;9.63;97.18
3960;BME280;1994;48.640;8.894;2023-03-14T03:13:17;94388.44;;;9.61;95.60
3960;BME280;1994;48.640;8.894;2023-03-14T03:15:43;94407.06;;;9.58;95.70
3960;BME280;1994;48.640;8.894;2023-03-14T05:40:36;94226.00;;;9.16;87.86
3960;BME280;1994;48.640;8.894;2023-03-14T05:43:01;94209.63;;;9.25;87.64
3960;BME280;1994;48.640;8.894;2023-03-14T05:45:27;94230.06;;;9.22;87.44
3960;BME280;1994;48.640;8.894;2023-03-14T05:47:53;94220.19;;;9.29;86.95
3960;BME280;1994;48.640;8.894;2023-03-14T05:50:19;94210.34;;;9.31;86.55
3960;BME280;1994;48.640;8.894;2023-03-14T05:52:45;94206.75;;;9.32;86.10
3960;BME280;1994;48.640;8.894;2023-03-14T05:55:10;94193.34;;;9.25;86.39
3960;BME280;1994;48.640;8.894;2023-03-14T05:57:36;94219.66;;;9.32;86.36
3960;BME280;1994;48.640;8.894;2023-03-14T06:00:03;94210.88;;;9.33;85.63
3960;BME280;1994;48.640;8.894;2023-03-14T06:02:28;94213.47;;;9.33;86.11
3960;BME280;1994;48.640;8.894;2023-03-14T06:04:57;94224.84;;;9.32;85.20
3960;BME280;1994;48.640;8.894;2023-03-14T06:07:23;94211.09;;;9.36;85.49
3960;BME280;1994;48.640;8.894;2023-03-14T06:09:49;94217.34;;;9.30;85.74
3960;BME280;1994;48.640;8.894;2023-03-14T06:12:14;94227.38;;;9.37;85.11
3960;BME280;1994;48.640;8.894;2023-03-14T06:14:40;94222.97;;;9.37;85.58
3960;BME280;1994;48.640;8.894;2023-03-14T06:17:06;94222.75;;;9.34;85.55
3960;BME280;1994;48.640;8.894;2023-03-14T06:19:32;94220.13;;;9.39;85.33
3960;BME280;1994;48.640;8.894;2023-03-14T06:21:57;94216.50;;;9.40;84.30
3960;BME280;1994;48.640;8.894;2023-03-14T06:24:23;94212.78;;;9.51;84.56
3960;BME280;1994;48.640;8.894;2023-03-14T06:26:49;94220.13;;;9.39;85.01
3960;BME280;1994;48.640;8.894;2023-03-14T06:29:15;94216.94;;;9.47;84.90
3960;BME280;1994;48.640;8.894;2023-03-14T06:31:40;94219.47;;;9.52;85.08
3960;BME280;1994;48.640;8.894;2023-03-14T06:34:06;94207.59;;;9.51;84.26
3960;BME280;1994;48.640;8.894;2023-03-14T06:36:32;94208.28;;;9.61;83.91
3960;BME280;1994;48.640;8.894;2023-03-14T06:38:58;94208.03;;;9.58;83.49
3960;BME280;1994;48.640;8.894;2023-03-14T06:41:24;94201.78;;;9.64;83.93
3960;BME280;1994;48.640;8.894;2023-03-14T06:43:51;94201.25;;;9.67;83.74
3960;BME280;1994;48.640;8.894;2023-03-14T06:46:17;94208.47;;;9.70;83.69
3960;BME280;1994;48.640;8.894;2023-03-14T06:48:43;94214.78;;;9.59;83.74
3960;BME280;1994;48.640;8.894;2023-03-14T06:51:09;94198.50;;;9.58;83.23
3960;BME280;1994;48.640;8.894;2023-03-14T06:53:36;94211.59;;;9.67;83.62
3960;BME280;1994;48.640;8.894;2023-03-14T06:56:02;94201.28;;;9.62;83.49
3960;BME280;1994;48.640;8.894;2023-03-14T06:58:28;94200.53;;;9.85;84.02
3960;BME280;1994;48.640;8.894;2023-03-14T07:00:53;94207.09;;;10.01;83.25
3960;BME280;1994;48.640;8.894;2023-03-14T07:03:20;94209.66;;;10.06;83.00
3960;BME280;1994;48.640;8.894;2023-03-14T07:05:46;94215.25;;;9.89;83.83
3960;BME280;1994;48.640;8.894;2023-03-14T07:08:13;94223.72;;;9.95;83.28
3960;BME280;1994;48.640;8.894;2023-03-14T07:10:42;94215.78;;;9.86;83.28
3960;BME280;1994;48.640;8.894;2023-03-14T07:13:08;94215.38;;;10.03;83.03
3960;BME280;1994;48.640;8.894;2023-03-14T07:15:34;94217.25;;;10.21;81.69
3960;BME280;1994;48.640;8.894;2023-03-14T07:17:59;94218.13;;;10.35;81.11
3960;BME280;1994;48.640;8.894;2023-03-14T07:20:25;94217.00;;;10.41;80.92
3960;BME280;1994;48.640;8.894;2023-03-14T07:22:51;94227.53;;;10.49;80.60
3960;BME280;1994;48.640;8.894;2023-03-14T07:25:17;94225.06;;;10.58;79.85
3960;BME280;1994;48.640;8.894;2023-03-14T07:27:46;94226.38;;;10.37;79.56
3960;BME280;1994;48.640;8.894;2023-03-14T07:30:14;94238.31;;;10.33;80.64
3960;BME280;1994;48.640;8.894;2023-03-14T07:32:43;94239.06;;;10.57;80.27
3960;BME280;1994;48.640;8.894;2023-03-14T07:35:09;94243.88;;;10.63;80.34
3960;BME280;1994;48.640;8.894;2023-03-14T07:37:35;94249.34;;;10.80;79.57
3960;BME280;1994;48.640;8.894;2023-03-14T07:40:01;94250.50;;;10.93;78.38
3960;BME280;1994;48.640;8.894;2023-03-14T07:42:26;94244.19;;;10.99;77.20
3960;BME280;1994;48.640;8.894;2023-03-14T07:44:52;94255.72;;;11.25;76.37
3960;BME280;1994;48.640;8.894;2023-03-14T07:47:18;94257.19;;;11.31;76.88
3960;BME280;1994;48.640;8.894;2023-03-14T07:49:44;94254.25;;;11.19;76.63
3960;BME280;1994;48.640;8.894;2023-03-14T07:52:16;94274.00;;;11.15;75.81
3960;BME280;1994;48.640;8.894;2023-03-14T07:54:44;94272.75;;;11.31;75.01
3960;BME280;1994;48.640;8.894;2023-03-14T07:57:10;94264.34;;;11.39;75.74
3960;BME280;1994;48.640;8.894;2023-03-14T07:59:36;94266.28;;;11.47;75.18
3960;BME280;1994;48.640;8.894;2023-03-14T08:02:02;94271.72;;;11.64;74.53
3960;BME280;1994;48.640;8.894;2023-03-14T08:04:30;94268.31;;;11.68;73.34
3960;BME280;1994;48.640;8.894;2023-03-14T08:06:56;94275.94;;;11.60;72.96
3960;BME280;1994;48.640;8.894;2023-03-14T08:09:22;94270.19;;;11.63;71.72
3960;BME280;1994;48.640;8.894;2023-03-14T08:11:47;94263.94;;;11.64;71.59
3960;BME280;1994;48.640;8.894;2023-03-14T08:14:13;94273.84;;;11.62;71.59
3960;BME280;1994;48.640;8.894;2023-03-14T08:16:39;94272.78;;;11.44;70.65
3960;BME280;1994;48.640;8.894;2023-03-14T08:19:05;94290.66;;;11.46;72.60
3960;BME280;1994;48.640;8.894;2023-03-14T08:21:30;94268.69;;;11.25;72.20
3960;BME280;1994;48.640;8.894;2023-03-14T08:23:56;94278.13;;;11.34;72.46
3960;BME280;1994;48.640;8.894;2023-03-14T08:26:22;94276.16;;;11.63;72.95
3960;BME280;1994;48.640;8.894;2023-03-14T08:28:48;94281.69;;;11.57;72.91
3960;BME280;1994;48.640;8.894;2023-03-14T08:31:13;94282.41;;;12.35;71.60
3960;BME280;1994;48.640;8.894;2023-03-14T08:33:39;94309.53;;;12.83;70.83
3960;BME280;1994;48.640;8.894;2023-03-14T08:36:06;94289.31;;;11.99;71.50
3960;BME280;1994;48.640;8.894;2023-03-14T08:38:32;94283.16;;;11.63;73.69
3960;BME280;1994;48.640;8.894;2023-03-14T08:40:59;94296.97;;;11.40;75.24
3960;BME280;1994;48.640;8.894;2023-03-14T08:43:27;94290.34;;;10.97;77.00
3960;BME280;1994;48.640;8.894;2023-03-14T08:45:53;94296.81;;;10.76;79.08
3960;BME280;1994;48.640;8.894;2023-03-14T08:48:19;94291.84;;;10.79;78.48
3960;BME280;1994;48.640;8.894;2023-03-14T08:50:46;94295.81;;;10.72;79.54
3960;BME280;1994;48.640;8.894;2023-03-14T08:53:12;94297.72;;;10.43;82.20
3960;BME280;1994;48.640;8.894;2023-03-14T08:55:37;94304.38;;;10.25;84.53
3960;BME280;1994;48.640;8.894;2023-03-14T08:58:03;94291.31;;;10.12;84.76
3960;BME280;1994;48.640;8.894;2023-03-14T09:00:29;94313.47;;;10.23;84.93
3960;BME280;1994;48.640;8.894;2023-03-14T09:02:55;94299.03;;;10.17;84.68
3960;BME280;1994;48.640;8.894;2023-03-14T09:05:20;94303.13;;;10.23;84.16
3960;BME280;1994;48.640;8.894;2023-03-14T09:07:46;94302.78;;;10.53;83.84
3960;BME280;1994;48.640;8.894;2023-03-14T09:10:12;94313.03;;;10.63;82.49
3960;BME280;1994;48.640;8.894;2023-03-14T09:12:38;94314.16;;;10.57;81.24
3960;BME280;1994;48.640;8.894;2023-03-14T09:15:04;94310.88;;;10.70;80.18
3960;BME280;1994;48.640;8.894;2023-03-14T09:17:30;94311.03;;;10.78;78.38
3960;BME280;1994;48.640;8.894;2023-03-14T09:19:56;94311.19;;;10.63;78.40
3960;BME280;1994;48.640;8.894;2023-03-14T09:22:22;94321.72;;;10.72;78.49
3960;BME280;1994;48.640;8.894;2023-03-14T09:24:48;94318.06;;;10.73;79.18
3960;BME280;1994;48.640;8.894;2023-03-14T09:27:14;94327.56;;;10.82;78.63
3960;BME280;1994;48.640;8.894;2023-03-14T09:29:40;94326.25;;;10.85;78.84
3960;BME280;1994;48.640;8.894;2023-03-14T09:32:05;94322.19;;;11.16;78.53
3960;BME280;1994;48.640;8.894;2023-03-14T09:34:34;94332.34;;;11.31;78.87
3960;BME280;1994;48.640;8.894;2023-03-14T09:37:00;94343.63;;;11.03;78.66
3960;BME280;1994;48.640;8.894;2023-03-14T09:39:29;94332.25;;;10.99;79.38
3960;BME280;1994;48.640;8.894;2023-03-14T09:41:56;94326.63;;;11.15;78.54
3960;BME280;1994;48.640;8.894;2023-03-14T09:45:00;94326.13;;;11.32;77.94
3960;BME280;1994;48.640;8.894;2023-03-14T09:47:28;94318.66;;;11.81;76.46
3960;BME280;1994;48.640;8.894;2023-03-14T09:49:54;94326.66;;;12.57;72.96
3960;BME280;1994;48.640;8.894;2023-03-14T09:52:27;94364.53;;;13.39;69.43
3960;BME280;1994;48.640;8.894;2023-03-14T09:55:04;94333.22;;;14.62;65.00
3960;BME280;1994;48.640;8.894;2023-03-14T09:57:34;94347.69;;;15.33;61.51
3960;BME280;1994;48.640;8.894;2023-03-14T10:00:25;94349.75;;;14.58;62.75
3960;BME280;1994;48.640;8.894;2023-03-14T10:05:38;94336.56;;;14.02;65.25
3960;BME280;1994;48.640;8.894;2023-03-14T10:08:04;94343.91;;;13.42;66.25
3960;BME280;1994;48.640;8.894;2023-03-14T10:10:31;94335.72;;;12.73;68.54
3960;BME280;1994;48.640;8.894;2023-03-14T10:15:37;94344.84;;;11.98;72.25
3960;BME280;1994;48.640;8.894;2023-03-14T10:18:14;94336.03;;;11.99;72.61
3960;BME280;1994;48.640;8.894;2023-03-14T10:20:46;94340.53;;;12.52;69.97
3960;BME280;1994;48.640;8.894;2023-03-14T10:25:44;94359.38;;;12.85;69.61
3960;BME280;1994;48.640;8.894;2023-03-14T10:28:39;94322.22;;;12.30;70.08
3960;BME280;1994;48.640;8.894;2023-03-14T10:31:05;94347.34;;;12.03;73.02
3960;BME280;1994;48.640;8.894;2023-03-14T10:33:36;94336.97;;;12.03;74.78
3960;BME280;1994;48.640;8.894;2023-03-14T10:36:20;94333.41;;;12.31;73.59
3960;BME280;1994;48.640;8.894;2023-03-14T10:38:47;94345.41;;;11.95;72.73
3960;BME280;1994;48.640;8.894;2023-03-14T10:41:25;94343.78;;;11.67;73.72
3960;BME280;1994;48.640;8.894;2023-03-14T10:43:54;94346.94;;;11.64;75.27
3960;BME280;1994;48.640;8.894;2023-03-14T10:46:24;94351.91;;;11.42;75.68
3960;BME280;1994;48.640;8.894;2023-03-14T10:48:52;94351.22;;;11.55;77.39
3960;BME280;1994;48.640;8.894;2023-03-14T10:51:26;94359.31;;;11.30;76.98
3960;BME280;1994;48.640;8.894;2023-03-14T10:56:28;94371.22;;;11.31;79.21
3960;BME280;1994;48.640;8.894;2023-03-14T10:58:59;94375.41;;;11.27;79.57
3960;BME280;1994;48.640;8.894;2023-03-14T11:01:45;94377.06;;;11.23;80.40
3960;BME280;1994;48.640;8.894;2023-03-14T11:12:33;94395.34;;;10.89;84.62
3960;BME280;1994;48.640;8.894;2023-03-14T11:24:31;94399.91;;;10.74;86.37
3960;BME280;1994;48.640;8.894;2023-03-14T11:27:07;94408.22;;;10.71;87.10
3960;BME280;1994;48.640;8.894;2023-03-14T11:30:30;94421.78;;;10.63;87.08
3960;BME280;1994;48.640;8.894;2023-03-14T11:36:02;94406.72;;;10.65;86.22
3960;BME280;1994;48.640;8.894;2023-03-14T11:41:20;94418.47;;;11.04;85.92
3960;BME280;1994;48.640;8.894;2023-03-14T11:43:52;94416.59;;;11.10;85.85
3960;BME280;1994;48.640;8.894;2023-03-14T11:46:38;94422.66;;;11.00;88.62
3960;BME280;1994;48.640;8.894;2023-03-14T11:52:34;94436.78;;;10.61;89.50
3960;BME280;1994;48.640;8.894;2023-03-14T11:57:36;94449.88;;;10.74;89.35
3960;BME280;1994;48.640;8.894;2023-03-14T12:00:16;94458.44;;;10.75;90.38
3960;BME280;1994;48.640;8.894;2023-03-14T12:08:55;94484.88;;;11.42;85.68
3960;BME280;1994;48.640;8.894;2023-03-14T12:14:36;94494.41;;;11.47;80.36
3960;BME280;1994;48.640;8.894;2023-03-14T12:19:39;94512.94;;;12.19;75.41
3960;BME280;1994;48.640;8.894;2023-03-14T12:22:22;94509.28;;;12.71;75.85
3960;BME280;1994;48.640;8.894;2023-03-14T12:30:36;94523.56;;;13.32;65.65
3960;BME280;1994;48.640;8.894;2023-03-14T12:36:04;94538.13;;;13.60;57.88
3960;BME280;1994;48.640;8.894;2023-03-14T12:43:34;94570.69;;;13.85;57.01
3960;BME280;1994;48.640;8.894;2023-03-14T12:48:34;94593.81;;;13.73;55.08
3960;BME280;1994;48.640;8.894;2023-03-14T12:51:14;94605.16;;;13.63;55.03
3960;BME280;1994;48.640;8.894;2023-03-14T12:59:58;94638.53;;;13.75;56.42
3960;BME280;1994;48.640;8.894;2023-03-14T13:02:42;94647.59;;;14.18;54.49
3960;BME280;1994;48.640;8.894;2023-03-14T13:05:19;94645.19;;;12.85;52.57
3960;BME280;1994;48.640;8.894;2023-03-14T13:13:04;94687.44;;;12.35;54.90
3960;BME280;1994;48.640;8.894;2023-03-14T13:15:42;94708.75;;;12.13;56.26
3960;BME280;1994;48.640;8.894;2023-03-14T13:18:42;94703.06;;;11.88;55.24
3960;BME280;1994;48.640;8.894;2023-03-14T13:21:24;94719.81;;;11.72;55.86
3960;BME280;1994;48.640;8.894;2023-03-14T13:24:21;94724.53;;;11.65;55.57
3960;BME280;1994;48.640;8.894;2023-03-14T13:26:48;94735.59;;;11.42;55.33
3960;BME280;1994;48.640;8.894;2023-03-14T13:31:48;94755.31;;;11.38;56.77
3960;BME280;1994;48.640;8.894;2023-03-14T13:34:15;94757.41;;;11.36;55.36
3960;BME280;1994;48.640;8.894;2023-03-14T13:36:40;94760.66;;;11.18;55.86
3960;BME280;1994;48.640;8.894;2023-03-14T13:39:19;94772.69;;;10.99;58.43
3960;BME280;1994;48.640;8.894;2023-03-14T13:41:47;94797.59;;;10.95;58.20
3960;BME280;1994;48.640;8.894;2023-03-14T13:44:39;94796.03;;;10.89;56.14
3960;BME280;1994;48.640;8.894;2023-03-14T13:47:18;94800.44;;;10.93;56.90
3960;BME280;1994;48.640;8.894;2023-03-14T13:49:46;94807.41;;;10.98;57.81
3960;BME280;1994;48.640;8.894;2023-03-14T13:52:29;94826.41;;;11.27;56.38
3960;BME280;1994;48.640;8.894;2023-03-14T13:54:59;94829.56;;;11.24;55.42
3960;BME280;1994;48.640;8.894;2023-03-14T13:57:25;94844.03;;;11.30;55.46
3960;BME280;1994;48.640;8.894;2023-03-14T14:00:05;94852.78;;;11.44;54.38
3960;BME280;1994;48.640;8.894;2023-03-14T14:02:36;94848.47;;;11.24;51.97
3960;BME280;1994;48.640;8.894;2023-03-14T14:05:04;94873.59;;;11.29;53.73
3960;BME280;1994;48.640;8.894;2023-03-14T14:07:30;94873.66;;;11.19;51.95
3960;BME280;1994;48.640;8.894;2023-03-14T14:09:57;94876.50;;;11.12;51.99
3960;BME280;1994;48.640;8.894;2023-03-14T14:12:42;94888.16;;;11.20;52.54
3960;BME280;1994;48.640;8.894;2023-03-14T14:15:27;94892.50;;;11.29;51.94
3960;BME280;1994;48.640;8.894;2023-03-14T14:18:01;94904.03;;;11.03;51.47
3960;BME280;1994;48.640;8.894;2023-03-14T14:20:43;94907.44;;;10.89;52.10
3960;BME280;1994;48.640;8.894;2023-03-14T14:23:12;94917.28;;;10.97;52.25
3960;BME280;1994;48.640;8.894;2023-03-14T14:25:39;94927.63;;;10.97;52.58
3960;BME280;1994;48.640;8.894;2023-03-14T14:28:32;94914.25;;;10.70;52.57
3960;BME280;1994;48.640;8.894;2023-03-14T14:31:23;94932.13;;;10.51;51.59
3960;BME280;1994;48.640;8.894;2023-03-14T14:36:38;94946.91;;;10.21;51.35
3960;BME280;1994;48.640;8.894;2023-03-14T14:39:26;94947.41;;;10.68;51.42
3960;BME280;1994;48.640;8.894;2023-03-14T14:41:54;94955.69;;;10.60;50.72
3960;BME280;1994;48.640;8.894;2023-03-14T14:44:46;94949.22;;;10.42;51.09
3960;BME280;1994;48.640;8.894;2023-03-14T14:47:24;94949.94;;;10.73;51.31
3960;BME280;1994;48.640;8.894;2023-03-14T14:49:53;94950.47;;;10.80;50.88
3960;BME280;1994;48.640;8.894;2023-03-14T14:52:31;94951.44;;;10.99;49.86
3960;BME280;1994;48.640;8.894;2023-03-14T14:55:00;94964.94;;;10.96;49.80
3960;BME280;1994;48.640;8.894;2023-03-14T14:57:37;94959.69;;;11.16;49.51
3960;BME280;1994;48.640;8.894;2023-03-14T15:00:24;94973.19;;;11.08;50.13
3960;BME280;1994;48.640;8.894;2023-03-14T15:02:52;94967.56;;;10.81;51.03
3960;BME280;1994;48.640;8.894;2023-03-14T15:05:27;94970.13;;;11.01;50.32
3960;BME280;1994;48.640;8.894;2023-03-14T15:07:56;94982.03;;;10.97;50.63
3960;BME280;1994;48.640;8.894;2023-03-14T15:10:24;94971.22;;;10.75;50.76
3960;BME280;1994;48.640;8.894;2023-03-14T15:12:51;94975.88;;;10.63;51.32
3960;BME280;1994;48.640;8.894;2023-03-14T15:15:17;94969.69;;;10.44;50.71
3960;BME280;1994;48.640;8.894;2023-03-14T15:17:43;94984.16;;;10.50;52.33
3960;BME280;1994;48.640;8.894;2023-03-14T15:20:16;94984.94;;;10.65;52.39
3960;BME280;1994;48.640;8.894;2023-03-14T15:22:42;94984.69;;;10.22;51.13
3960;BME280;1994;48.640;8.894;2023-03-14T15:25:09;94992.44;;;10.22;51.96
3960;BME280;1994;48.640;8.894;2023-03-14T15:27:36;94987.28;;;10.37;53.05
3960;BME280;1994;48.640;8.894;2023-03-14T15:30:28;94978.94;;;9.95;52.05
3960;BME280;1994;48.640;8.894;2023-03-14T15:32:54;94990.91;;;10.16;52.53
3960;BME280;1994;48.640;8.894;2023-03-14T15:35:23;94993.50;;;10.21;53.32
3960;BME280;1994;48.640;8.894;2023-03-14T15:37:49;94988.81;;;10.18;52.37
3960;BME280;1994;48.640;8.894;2023-03-14T15:40:15;94978.47;;;10.18;52.61
3960;BME280;1994;48.640;8.894;2023-03-14T15:42:41;94987.28;;;10.32;53.28
3960;BME280;1994;48.640;8.894;2023-03-14T15:45:07;94987.53;;;10.35;52.36
3960;BME280;1994;48.640;8.894;2023-03-14T15:47:33;94985.19;;;10.39;52.46
3960;BME280;1994;48.640;8.894;2023-03-14T15:50:00;95001.72;;;9.98;53.64
3960;BME280;1994;48.640;8.894;2023-03-14T15:52:25;95005.41;;;10.27;53.61
3960;BME280;1994;48.640;8.894;2023-03-14T15:54:51;95001.50;;;10.29;53.15
3960;BME280;1994;48.640;8.894;2023-03-14T15:57:17;95005.66;;;10.05;52.37
3960;BME280;1994;48.640;8.894;2023-03-14T15:59:45;95016.16;;;9.89;53.49
3960;BME280;1994;48.640;8.894;2023-03-14T16:02:11;95008.47;;;10.04;54.58
3960;BME280;1994;48.640;8.894;2023-03-14T16:04:37;95021.44;;;10.09;54.20
3960;BME280;1994;48.640;8.894;2023-03-14T16:07:03;95019.88;;;10.28;53.30
3960;BME280;1994;48.640;8.894;2023-03-14T16:09:28;95017.75;;;10.00;52.75
3960;BME280;1994;48.640;8.894;2023-03-14T16:11:54;95041.00;;;9.95;53.52
3960;BME280;1994;48.640;8.894;2023-03-14T16:14:20;95028.06;;;9.90;53.87
3960;BME280;1994;48.640;8.894;2023-03-14T16:16:46;95038.41;;;9.85;54.61
3960;BME280;1994;48.640;8.894;2023-03-14T16:19:12;95036.53;;;9.65;55.10
3960;BME280;1994;48.640;8.894;2023-03-14T16:21:38;95041.31;;;9.32;55.88
3960;BME280;1994;48.640;8.894;2023-03-14T16:24:04;95047.31;;;9.01;57.43
3960;BME280;1994;48.640;8.894;2023-03-14T16:26:31;95047.97;;;8.81;57.31
3960;BME280;1994;48.640;8.894;2023-03-14T16:28:59;95049.69;;;8.71;58.16
3960;BME280;1994;48.640;8.894;2023-03-14T16:31:25;95048.22;;;8.80;57.27
3960;BME280;1994;48.640;8.894;2023-03-14T16:33:51;95062.00;;;8.59;59.11
3960;BME280;1994;48.640;8.894;2023-03-14T16:36:17;95056.84;;;8.59;59.66
3960;BME280;1994;48.640;8.894;2023-03-14T16:38:44;95063.97;;;8.47;60.41
3960;BME280;1994;48.640;8.894;2023-03-14T16:41:18;95068.44;;;8.56;60.17
3960;BME280;1994;48.640;8.894;2023-03-14T16:43:44;95067.38;;;8.26;61.72
3960;BME280;1994;48.640;8.894;2023-03-14T16:46:14;95080.44;;;8.41;63.52
3960;BME280;1994;48.640;8.894;2023-03-14T16:48:44;95069.53;;;8.34;62.55
3960;BME280;1994;48.640;8.894;2023-03-14T16:51:10;95082.09;;;8.04;65.63
3960;BME280;1994;48.640;8.894;2023-03-14T16:53:36;95099.19;;;8.10;68.64
3960;BME280;1994;48.640;8.894;2023-03-14T16:56:02;95098.00;;;7.53;71.11
3960;BME280;1994;48.640;8.894;2023-03-14T16:58:28;95104.28;;;7.40;73.43
3960;BME280;1994;48.640;8.894;2023-03-14T17:00:57;95115.03;;;7.54;74.34
3960;BME280;1994;48.640;8.894;2023-03-14T17:03:24;95124.59;;;7.37;75.66
3960;BME280;1994;48.640;8.894;2023-03-14T17:05:52;95126.16;;;7.21;75.49
3960;BME280;1994;48.640;8.894;2023-03-14T17:08:19;95131.72;;;7.13;76.68
3960;BME280;1994;48.640;8.894;2023-03-14T17:10:45;95134.00;;;7.10;76.38
3960;BME280;1994;48.640;8.894;2023-03-14T17:13:11;95138.34;;;7.09;76.57
3960;BME280;1994;48.640;8.894;2023-03-14T17:15:37;95142.75;;;7.09;76.35
3960;BME280;1994;48.640;8.894;2023-03-14T17:18:04;95155.91;;;6.96;76.83
3960;BME280;1994;48.640;8.894;2023-03-14T17:20:31;95167.63;;;7.03;77.25
3960;BME280;1994;48.640;8.894;2023-03-14T17:22:56;95162.06;;;6.95;77.57
3960;BME280;1994;48.640;8.894;2023-03-14T17:25:22;95163.88;;;7.11;77.46
3960;BME280;1994;48.640;8.894;2023-03-14T17:27:48;95173.13;;;6.79;79.09